sensor_id;sensor_type;location;lat;lon;timestamp;temperature;humidity
54264;DHT22;40178;53.042;6.406;2024-02-26T00:02:18;2.20;99.90
54264;DHT22;40178;53.042;6.406;2024-02-26T00:04:43;2.10;99.90
54264;DHT22;40178;53.042;6.406;2024-02-26T00:07:09;2.10;99.90
54264;DHT22;40178;53.042;6.406;2024-02-26T00:09:34;2.20;99.90
54264;DHT22;40178;53.042;6.406;2024-02-26T00:12:03;2.20;99.90
54264;DHT22;40178;53.042;6.406;2024-02-26T00:14:30;2.20;99.90
54264;DHT22;40178;53.042;6.406;2024-02-26T00:16:55;2.30;99.90
54264;DHT22;40178;53.042;6.406;2024-02-26T00:19:21;2.20;99.90
54264;DHT22;40178;53.042;6.406;2024-02-26T00:21:47;2.30;99.90
54264;DHT22;40178;53.042;6.406;2024-02-26T00:24:12;2.40;99.90
54264;DHT22;40178;53.042;6.406;2024-02-26T00:26:38;2.40;99.90
54264;DHT22;40178;53.042;6.406;2024-02-26T00:29:03;2.50;99.90
54264;DHT22;40178;53.042;6.406;2024-02-26T00:31:29;2.50;99.90
54264;DHT22;40178;53.042;6.406;2024-02-26T00:33:55;2.50;99.90
54264;DHT22;40178;53.042;6.406;2024-02-26T00:36:21;2.40;99.90
54264;DHT22;40178;53.042;6.406;2024-02-26T00:38:46;2.50;99.90
54264;DHT22;40178;53.042;6.406;2024-02-26T00:41:17;2.40;99.90
54264;DHT22;40178;53.042;6.406;2024-02-26T00:43:42;2.40;99.90
54264;DHT22;40178;53.042;6.406;2024-02-26T00:46:08;2.40;99.90
54264;DHT22;40178;53.042;6.406;2024-02-26T00:48:34;2.50;99.90
54264;DHT22;40178;53.042;6.406;2024-02-26T00:50:59;2.40;99.90
54264;DHT22;40178;53.042;6.406;2024-02-26T00:53:25;2.50;99.90
54264;DHT22;40178;53.042;6.406;2024-02-26T00:55:51;2.50;99.90
54264;DHT22;40178;53.042;6.406;2024-02-26T00:58:16;2.60;99.90
54264;DHT22;40178;53.042;6.406;2024-02-26T01:00:42;2.70;99.90
54264;DHT22;40178;53.042;6.406;2024-02-26T01:03:08;2.80;99.90
54264;DHT22;40178;53.042;6.406;2024-02-26T01:05:35;2.70;99.90
54264;DHT22;40178;53.042;6.406;2024-02-26T01:08:01;2.80;99.90
54264;DHT22;40178;53.042;6.406;2024-02-26T01:10:27;2.90;99.90
54264;DHT22;40178;53.042;6.406;2024-02-26T01:12:53;2.90;99.90
54264;DHT22;40178;53.042;6.406;2024-02-26T01:15:19;2.80;99.90
54264;DHT22;40178;53.042;6.406;2024-02-26T01:17:47;3.00;99.90
54264;DHT22;40178;53.042;6.406;2024-02-26T01:20:13;2.90;99.90
54264;DHT22;40178;53.042;6.406;2024-02-26T01:22:38;2.90;99.90
54264;DHT22;40178;53.042;6.406;2024-02-26T01:25:06;2.90;99.90
54264;DHT22;40178;53.042;6.406;2024-02-26T01:27:33;2.90;99.90
54264;DHT22;40178;53.042;6.406;2024-02-26T01:29:58;3.00;99.90
54264;DHT22;40178;53.042;6.406;2024-02-26T01:32:24;2.90;99.90
54264;DHT22;40178;53.042;6.406;2024-02-26T01:34:49;3.00;99.90
54264;DHT22;40178;53.042;6.406;2024-02-26T01:37:15;3.00;99.90
54264;DHT22;40178;53.042;6.406;2024-02-26T01:39:41;3.00;99.90
54264;DHT22;40178;53.042;6.406;2024-02-26T01:42:07;3.00;99.90
54264;DHT22;40178;53.042;6.406;2024-02-26T01:44:33;3.10;99.90
54264;DHT22;40178;53.042;6.406;2024-02-26T01:46:59;3.10;99.90
54264;DHT22;40178;53.042;6.406;2024-02-26T01:49:27;3.10;99.90
54264;DHT22;40178;53.042;6.406;2024-02-26T01:51:54;3.10;99.90
54264;DHT22;40178;53.042;6.406;2024-02-26T01:54:20;3.10;99.90
54264;DHT22;40178;53.042;6.406;2024-02-26T01:56:47;3.10;99.90
54264;DHT22;40178;53.042;6.406;2024-02-26T01:59:13;3.00;99.90
54264;DHT22;40178;53.042;6.406;2024-02-26T02:01:39;3.00;99.90
54264;DHT22;40178;53.042;6.406;2024-02-26T02:04:06;3.00;99.90
54264;DHT22;40178;53.042;6.406;2024-02-26T02:06:32;3.00;99.90
54264;DHT22;40178;53.042;6.406;2024-02-26T02:08:58;3.00;99.90
54264;DHT22;40178;53.042;6.406;2024-02-26T02:11:26;3.00;99.90
54264;DHT22;40178;53.042;6.406;2024-02-26T02:13:51;2.90;99.90
54264;DHT22;40178;53.042;6.406;2024-02-26T02:16:17;2.90;99.90
54264;DHT22;40178;53.042;6.406;2024-02-26T02:18:42;2.90;99.90
54264;DHT22;40178;53.042;6.406;2024-02-26T02:21:08;2.90;99.90
54264;DHT22;40178;53.042;6.406;2024-02-26T02:23:34;2.80;99.90
54264;DHT22;40178;53.042;6.406;2024-02-26T02:25:59;2.90;99.90
54264;DHT22;40178;53.042;6.406;2024-02-26T02:28:26;2.90;99.90
54264;DHT22;40178;53.042;6.406;2024-02-26T02:30:52;2.90;99.90
54264;DHT22;40178;53.042;6.406;2024-02-26T02:33:19;2.10;99.90
54264;DHT22;40178;53.042;6.406;2024-02-26T02:35:44;2.80;99.90
54264;DHT22;40178;53.042;6.406;2024-02-26T02:38:11;2.80;99.90
54264;DHT22;40178;53.042;6.406;2024-02-26T02:40:36;2.80;99.90
54264;DHT22;40178;53.042;6.406;2024-02-26T02:43:02;2.70;99.90
54264;DHT22;40178;53.042;6.406;2024-02-26T02:45:28;2.70;99.90
54264;DHT22;40178;53.042;6.406;2024-02-26T02:47:54;2.60;99.90
54264;DHT22;40178;53.042;6.406;2024-02-26T02:50:20;2.60;99.90
54264;DHT22;40178;53.042;6.406;2024-02-26T02:52:45;2.60;99.90
54264;DHT22;40178;53.042;6.406;2024-02-26T02:55:11;2.50;99.90
54264;DHT22;40178;53.042;6.406;2024-02-26T02:57:37;2.50;99.90
54264;DHT22;40178;53.042;6.406;2024-02-26T03:00:08;2.40;99.90
54264;DHT22;40178;53.042;6.406;2024-02-26T03:02:33;2.40;99.90
54264;DHT22;40178;53.042;6.406;2024-02-26T03:05:02;2.40;99.90
54264;DHT22;40178;53.042;6.406;2024-02-26T03:07:28;2.40;99.90
54264;DHT22;40178;53.042;6.406;2024-02-26T03:09:53;2.40;99.90
54264;DHT22;40178;53.042;6.406;2024-02-26T03:12:19;2.30;99.90
54264;DHT22;40178;53.042;6.406;2024-02-26T03:14:45;2.30;99.90
54264;DHT22;40178;53.042;6.406;2024-02-26T03:17:10;2.30;99.90
54264;DHT22;40178;53.042;6.406;2024-02-26T03:19:36;2.30;99.90
54264;DHT22;40178;53.042;6.406;2024-02-26T03:22:01;2.30;99.90
54264;DHT22;40178;53.042;6.406;2024-02-26T03:24:27;2.20;99.90
54264;DHT22;40178;53.042;6.406;2024-02-26T03:26:53;2.20;99.90
54264;DHT22;40178;53.042;6.406;2024-02-26T03:29:19;2.30;99.90
54264;DHT22;40178;53.042;6.406;2024-02-26T03:31:45;2.30;99.90
54264;DHT22;40178;53.042;6.406;2024-02-26T03:34:10;2.40;99.90
54264;DHT22;40178;53.042;6.406;2024-02-26T03:36:38;2.40;99.90
54264;DHT22;40178;53.042;6.406;2024-02-26T03:39:03;2.40;99.90
54264;DHT22;40178;53.042;6.406;2024-02-26T03:41:36;2.40;99.90
54264;DHT22;40178;53.042;6.406;2024-02-26T03:44:02;2.40;99.90
54264;DHT22;40178;53.042;6.406;2024-02-26T03:46:28;2.40;99.90
54264;DHT22;40178;53.042;6.406;2024-02-26T03:48:53;2.30;99.90
54264;DHT22;40178;53.042;6.406;2024-02-26T03:51:19;2.40;99.90
54264;DHT22;40178;53.042;6.406;2024-02-26T03:53:45;2.40;99.90
54264;DHT22;40178;53.042;6.406;2024-02-26T03:56:14;2.30;99.90
54264;DHT22;40178;53.042;6.406;2024-02-26T03:58:39;2.30;99.90
54264;DHT22;40178;53.042;6.406;2024-02-26T04:01:08;2.30;99.90
54264;DHT22;40178;53.042;6.406;2024-02-26T04:03:35;2.30;99.90
54264;DHT22;40178;53.042;6.406;2024-02-26T04:06:01;2.20;99.90
54264;DHT22;40178;53.042;6.406;2024-02-26T04:08:26;2.20;99.90
54264;DHT22;40178;53.042;6.406;2024-02-26T04:10:52;2.30;99.90
54264;DHT22;40178;53.042;6.406;2024-02-26T04:13:18;2.20;99.90
54264;DHT22;40178;53.042;6.406;2024-02-26T04:15:44;2.30;99.90
54264;DHT22;40178;53.042;6.406;2024-02-26T04:18:09;2.30;99.90
54264;DHT22;40178;53.042;6.406;2024-02-26T04:20:35;2.40;99.90
54264;DHT22;40178;53.042;6.406;2024-02-26T04:23:00;2.40;99.90
54264;DHT22;40178;53.042;6.406;2024-02-26T04:25:26;2.40;99.90
54264;DHT22;40178;53.042;6.406;2024-02-26T04:27:52;2.40;99.90
54264;DHT22;40178;53.042;6.406;2024-02-26T04:30:17;2.40;99.90
54264;DHT22;40178;53.042;6.406;2024-02-26T04:32:43;2.40;99.90
54264;DHT22;40178;53.042;6.406;2024-02-26T04:35:09;2.40;99.90
54264;DHT22;40178;53.042;6.406;2024-02-26T04:37:35;2.40;99.90
54264;DHT22;40178;53.042;6.406;2024-02-26T04:40:01;2.40;99.90
54264;DHT22;40178;53.042;6.406;2024-02-26T04:42:27;2.40;99.90
54264;DHT22;40178;53.042;6.406;2024-02-26T04:44:54;2.40;99.90
54264;DHT22;40178;53.042;6.406;2024-02-26T04:47:20;2.40;99.90
54264;DHT22;40178;53.042;6.406;2024-02-26T04:49:48;2.50;99.90
54264;DHT22;40178;53.042;6.406;2024-02-26T04:52:14;2.50;99.90
54264;DHT22;40178;53.042;6.406;2024-02-26T04:54:40;2.50;99.90
54264;DHT22;40178;53.042;6.406;2024-02-26T04:57:05;2.60;99.90
54264;DHT22;40178;53.042;6.406;2024-02-26T04:59:31;2.60;99.90
54264;DHT22;40178;53.042;6.406;2024-02-26T05:01:57;2.60;99.90
54264;DHT22;40178;53.042;6.406;2024-02-26T05:04:22;3.50;99.90
54264;DHT22;40178;53.042;6.406;2024-02-26T05:06:48;2.60;99.90
54264;DHT22;40178;53.042;6.406;2024-02-26T05:09:13;2.50;99.90
54264;DHT22;40178;53.042;6.406;2024-02-26T05:11:39;2.60;99.90
54264;DHT22;40178;53.042;6.406;2024-02-26T05:14:04;2.60;99.90
54264;DHT22;40178;53.042;6.406;2024-02-26T05:16:30;2.60;99.90
54264;DHT22;40178;53.042;6.406;2024-02-26T05:18:57;2.60;99.90
54264;DHT22;40178;53.042;6.406;2024-02-26T05:21:22;2.60;99.90
54264;DHT22;40178;53.042;6.406;2024-02-26T05:23:48;2.70;99.90
54264;DHT22;40178;53.042;6.406;2024-02-26T05:26:21;2.60;99.90
54264;DHT22;40178;53.042;6.406;2024-02-26T05:28:47;2.60;99.90
54264;DHT22;40178;53.042;6.406;2024-02-26T05:31:13;2.60;99.90
54264;DHT22;40178;53.042;6.406;2024-02-26T05:33:39;2.60;99.90
54264;DHT22;40178;53.042;6.406;2024-02-26T05:36:05;2.60;99.90
54264;DHT22;40178;53.042;6.406;2024-02-26T05:38:31;2.60;99.90
54264;DHT22;40178;53.042;6.406;2024-02-26T05:41:00;2.60;99.90
54264;DHT22;40178;53.042;6.406;2024-02-26T05:43:26;2.60;99.90
54264;DHT22;40178;53.042;6.406;2024-02-26T05:45:52;2.60;99.90
54264;DHT22;40178;53.042;6.406;2024-02-26T05:48:18;2.60;99.90
54264;DHT22;40178;53.042;6.406;2024-02-26T05:50:45;2.60;99.90
54264;DHT22;40178;53.042;6.406;2024-02-26T05:53:11;2.60;99.90
54264;DHT22;40178;53.042;6.406;2024-02-26T05:55:36;2.60;99.90
54264;DHT22;40178;53.042;6.406;2024-02-26T05:58:03;2.60;99.90
54264;DHT22;40178;53.042;6.406;2024-02-26T06:00:28;2.60;99.90
54264;DHT22;40178;53.042;6.406;2024-02-26T06:02:54;2.60;99.90
54264;DHT22;40178;53.042;6.406;2024-02-26T06:05:19;2.60;99.90
54264;DHT22;40178;53.042;6.406;2024-02-26T06:07:45;2.70;99.90
54264;DHT22;40178;53.042;6.406;2024-02-26T06:10:11;2.70;99.90
54264;DHT22;40178;53.042;6.406;2024-02-26T06:12:39;2.60;99.90
54264;DHT22;40178;53.042;6.406;2024-02-26T06:15:05;2.70;99.90
54264;DHT22;40178;53.042;6.406;2024-02-26T06:17:30;2.60;99.90
54264;DHT22;40178;53.042;6.406;2024-02-26T06:19:56;2.70;99.90
54264;DHT22;40178;53.042;6.406;2024-02-26T06:22:22;2.70;99.90
54264;DHT22;40178;53.042;6.406;2024-02-26T06:24:47;2.70;99.90
54264;DHT22;40178;53.042;6.406;2024-02-26T06:27:13;2.70;99.90
54264;DHT22;40178;53.042;6.406;2024-02-26T06:29:38;2.70;99.90
54264;DHT22;40178;53.042;6.406;2024-02-26T06:32:05;2.70;99.90
54264;DHT22;40178;53.042;6.406;2024-02-26T06:34:30;2.70;99.90
54264;DHT22;40178;53.042;6.406;2024-02-26T06:36:56;2.70;99.90
54264;DHT22;40178;53.042;6.406;2024-02-26T06:39:22;2.70;99.90
54264;DHT22;40178;53.042;6.406;2024-02-26T06:41:47;2.70;99.90
54264;DHT22;40178;53.042;6.406;2024-02-26T06:44:13;2.70;99.90
54264;DHT22;40178;53.042;6.406;2024-02-26T06:46:39;2.70;99.90
54264;DHT22;40178;53.042;6.406;2024-02-26T06:49:05;2.80;99.90
54264;DHT22;40178;53.042;6.406;2024-02-26T06:51:31;2.80;99.90
54264;DHT22;40178;53.042;6.406;2024-02-26T06:53:56;2.80;99.90
54264;DHT22;40178;53.042;6.406;2024-02-26T06:56:22;2.80;99.90
54264;DHT22;40178;53.042;6.406;2024-02-26T06:58:47;2.80;99.90
54264;DHT22;40178;53.042;6.406;2024-02-26T07:01:13;2.80;99.90
54264;DHT22;40178;53.042;6.406;2024-02-26T07:03:42;2.80;99.90
54264;DHT22;40178;53.042;6.406;2024-02-26T07:06:08;2.80;99.90
54264;DHT22;40178;53.042;6.406;2024-02-26T07:08:34;2.90;99.90
54264;DHT22;40178;53.042;6.406;2024-02-26T07:10:59;2.90;99.90
54264;DHT22;40178;53.042;6.406;2024-02-26T07:13:25;2.80;99.90
54264;DHT22;40178;53.042;6.406;2024-02-26T07:15:50;2.90;99.90
54264;DHT22;40178;53.042;6.406;2024-02-26T07:18:16;3.00;99.90
54264;DHT22;40178;53.042;6.406;2024-02-26T07:20:42;3.00;99.90
54264;DHT22;40178;53.042;6.406;2024-02-26T07:23:07;3.00;99.90
54264;DHT22;40178;53.042;6.406;2024-02-26T07:25:33;3.00;99.90
54264;DHT22;40178;53.042;6.406;2024-02-26T07:27:59;3.00;99.90
54264;DHT22;40178;53.042;6.406;2024-02-26T07:30:24;3.10;99.90
54264;DHT22;40178;53.042;6.406;2024-02-26T07:32:50;3.10;99.90
54264;DHT22;40178;53.042;6.406;2024-02-26T07:35:16;3.10;99.90
54264;DHT22;40178;53.042;6.406;2024-02-26T07:37:43;3.10;99.90
54264;DHT22;40178;53.042;6.406;2024-02-26T07:40:09;3.10;99.90
54264;DHT22;40178;53.042;6.406;2024-02-26T07:42:34;3.10;99.90
54264;DHT22;40178;53.042;6.406;2024-02-26T07:45:00;3.10;99.90
54264;DHT22;40178;53.042;6.406;2024-02-26T07:47:26;3.10;99.90
54264;DHT22;40178;53.042;6.406;2024-02-26T07:49:51;3.10;99.90
54264;DHT22;40178;53.042;6.406;2024-02-26T07:52:17;3.10;99.90
54264;DHT22;40178;53.042;6.406;2024-02-26T07:54:42;3.10;99.90
54264;DHT22;40178;53.042;6.406;2024-02-26T07:57:08;3.10;99.90
54264;DHT22;40178;53.042;6.406;2024-02-26T07:59:33;3.20;99.90
54264;DHT22;40178;53.042;6.406;2024-02-26T08:01:59;3.20;99.90
54264;DHT22;40178;53.042;6.406;2024-02-26T08:04:26;3.20;99.90
54264;DHT22;40178;53.042;6.406;2024-02-26T08:06:52;3.20;99.90
54264;DHT22;40178;53.042;6.406;2024-02-26T08:09:17;3.20;99.90
54264;DHT22;40178;53.042;6.406;2024-02-26T08:11:43;3.20;99.90
54264;DHT22;40178;53.042;6.406;2024-02-26T08:14:09;3.20;99.90
54264;DHT22;40178;53.042;6.406;2024-02-26T08:16:34;3.30;99.90
54264;DHT22;40178;53.042;6.406;2024-02-26T08:19:00;3.30;99.90
54264;DHT22;40178;53.042;6.406;2024-02-26T08:21:25;3.30;99.90
54264;DHT22;40178;53.042;6.406;2024-02-26T08:23:51;3.30;99.90
54264;DHT22;40178;53.042;6.406;2024-02-26T08:26:16;3.30;99.90
54264;DHT22;40178;53.042;6.406;2024-02-26T08:28:42;3.30;99.90
54264;DHT22;40178;53.042;6.406;2024-02-26T08:31:08;3.40;99.90
54264;DHT22;40178;53.042;6.406;2024-02-26T08:33:33;3.40;99.90
54264;DHT22;40178;53.042;6.406;2024-02-26T08:36:07;3.40;99.90
54264;DHT22;40178;53.042;6.406;2024-02-26T08:38:32;3.40;99.90
54264;DHT22;40178;53.042;6.406;2024-02-26T08:41:01;3.40;99.90
54264;DHT22;40178;53.042;6.406;2024-02-26T08:43:28;3.50;99.90
54264;DHT22;40178;53.042;6.406;2024-02-26T08:45:53;3.50;99.90
54264;DHT22;40178;53.042;6.406;2024-02-26T08:48:19;3.50;99.90
54264;DHT22;40178;53.042;6.406;2024-02-26T08:50:45;3.50;99.90
54264;DHT22;40178;53.042;6.406;2024-02-26T08:53:10;3.50;99.90
54264;DHT22;40178;53.042;6.406;2024-02-26T08:55:36;3.60;99.90
54264;DHT22;40178;53.042;6.406;2024-02-26T08:58:01;3.60;99.90
54264;DHT22;40178;53.042;6.406;2024-02-26T09:00:27;3.60;99.90
54264;DHT22;40178;53.042;6.406;2024-02-26T09:02:53;3.60;99.90
54264;DHT22;40178;53.042;6.406;2024-02-26T09:05:18;3.70;99.90
54264;DHT22;40178;53.042;6.406;2024-02-26T09:07:44;3.70;99.90
54264;DHT22;40178;53.042;6.406;2024-02-26T09:10:10;3.70;99.90
54264;DHT22;40178;53.042;6.406;2024-02-26T09:12:39;3.70;99.90
54264;DHT22;40178;53.042;6.406;2024-02-26T09:15:06;3.80;99.90
54264;DHT22;40178;53.042;6.406;2024-02-26T09:17:32;3.80;99.90
54264;DHT22;40178;53.042;6.406;2024-02-26T09:19:58;3.80;99.90
54264;DHT22;40178;53.042;6.406;2024-02-26T09:22:24;3.80;99.90
54264;DHT22;40178;53.042;6.406;2024-02-26T09:24:49;3.90;99.90
54264;DHT22;40178;53.042;6.406;2024-02-26T09:27:16;3.90;99.90
54264;DHT22;40178;53.042;6.406;2024-02-26T09:29:42;3.90;99.90
54264;DHT22;40178;53.042;6.406;2024-02-26T09:32:08;4.00;99.90
54264;DHT22;40178;53.042;6.406;2024-02-26T09:34:33;4.00;99.90
54264;DHT22;40178;53.042;6.406;2024-02-26T09:36:59;4.00;99.90
54264;DHT22;40178;53.042;6.406;2024-02-26T09:39:26;4.10;99.90
54264;DHT22;40178;53.042;6.406;2024-02-26T09:41:53;4.10;99.90
54264;DHT22;40178;53.042;6.406;2024-02-26T09:44:19;4.10;99.90
54264;DHT22;40178;53.042;6.406;2024-02-26T09:46:48;4.20;99.90
54264;DHT22;40178;53.042;6.406;2024-02-26T09:49:18;4.20;99.90
54264;DHT22;40178;53.042;6.406;2024-02-26T09:51:45;4.20;99.90
54264;DHT22;40178;53.042;6.406;2024-02-26T09:54:13;4.30;99.90
54264;DHT22;40178;53.042;6.406;2024-02-26T09:56:39;4.30;99.90
54264;DHT22;40178;53.042;6.406;2024-02-26T09:59:11;4.30;99.90
54264;DHT22;40178;53.042;6.406;2024-02-26T10:01:41;4.30;99.90
54264;DHT22;40178;53.042;6.406;2024-02-26T10:04:08;4.40;99.90
54264;DHT22;40178;53.042;6.406;2024-02-26T10:06:36;4.30;99.90
54264;DHT22;40178;53.042;6.406;2024-02-26T10:09:02;4.30;99.90
54264;DHT22;40178;53.042;6.406;2024-02-26T10:11:32;4.40;99.90
54264;DHT22;40178;53.042;6.406;2024-02-26T10:13:58;4.40;99.90
54264;DHT22;40178;53.042;6.406;2024-02-26T10:16:25;4.40;99.90
54264;DHT22;40178;53.042;6.406;2024-02-26T10:18:52;4.40;99.90
54264;DHT22;40178;53.042;6.406;2024-02-26T10:21:22;4.40;99.90
54264;DHT22;40178;53.042;6.406;2024-02-26T10:23:48;4.50;99.90
54264;DHT22;40178;53.042;6.406;2024-02-26T10:26:16;4.60;99.90
54264;DHT22;40178;53.042;6.406;2024-02-26T10:28:44;4.50;99.90
54264;DHT22;40178;53.042;6.406;2024-02-26T10:31:10;4.50;99.90
54264;DHT22;40178;53.042;6.406;2024-02-26T10:33:37;4.60;99.90
54264;DHT22;40178;53.042;6.406;2024-02-26T10:36:07;4.50;99.90
54264;DHT22;40178;53.042;6.406;2024-02-26T10:38:34;4.60;99.90
54264;DHT22;40178;53.042;6.406;2024-02-26T10:41:02;4.60;99.90
54264;DHT22;40178;53.042;6.406;2024-02-26T10:43:28;4.60;99.90
54264;DHT22;40178;53.042;6.406;2024-02-26T10:45:57;4.60;99.90
54264;DHT22;40178;53.042;6.406;2024-02-26T10:48:23;4.60;99.90
54264;DHT22;40178;53.042;6.406;2024-02-26T10:50:49;4.60;99.90
54264;DHT22;40178;53.042;6.406;2024-02-26T10:53:20;4.70;99.90
54264;DHT22;40178;53.042;6.406;2024-02-26T10:55:54;4.60;99.90
54264;DHT22;40178;53.042;6.406;2024-02-26T10:58:21;4.70;99.90
54264;DHT22;40178;53.042;6.406;2024-02-26T11:00:50;4.80;99.90
54264;DHT22;40178;53.042;6.406;2024-02-26T11:03:16;4.80;99.90
54264;DHT22;40178;53.042;6.406;2024-02-26T11:05:49;6.00;99.90
54264;DHT22;40178;53.042;6.406;2024-02-26T11:08:17;4.80;99.90
54264;DHT22;40178;53.042;6.406;2024-02-26T11:10:43;4.90;99.90
54264;DHT22;40178;53.042;6.406;2024-02-26T11:13:14;4.90;99.90
54264;DHT22;40178;53.042;6.406;2024-02-26T11:15:40;4.90;99.90
54264;DHT22;40178;53.042;6.406;2024-02-26T11:18:07;5.00;99.90
54264;DHT22;40178;53.042;6.406;2024-02-26T11:20:33;5.10;99.90
54264;DHT22;40178;53.042;6.406;2024-02-26T11:22:59;5.20;99.90
54264;DHT22;40178;53.042;6.406;2024-02-26T11:25:25;5.30;99.90
54264;DHT22;40178;53.042;6.406;2024-02-26T11:27:55;5.40;99.90
54264;DHT22;40178;53.042;6.406;2024-02-26T11:30:24;5.50;99.90
54264;DHT22;40178;53.042;6.406;2024-02-26T11:32:51;5.50;99.90
54264;DHT22;40178;53.042;6.406;2024-02-26T11:35:18;5.50;99.90
54264;DHT22;40178;53.042;6.406;2024-02-26T11:37:54;5.50;99.90
54264;DHT22;40178;53.042;6.406;2024-02-26T11:40:23;5.50;99.90
54264;DHT22;40178;53.042;6.406;2024-02-26T11:42:49;5.60;99.90
54264;DHT22;40178;53.042;6.406;2024-02-26T11:48:14;5.60;99.90
54264;DHT22;40178;53.042;6.406;2024-02-26T11:50:42;5.50;99.90
54264;DHT22;40178;53.042;6.406;2024-02-26T11:53:31;5.50;99.90
54264;DHT22;40178;53.042;6.406;2024-02-26T11:59:09;5.70;99.90
54264;DHT22;40178;53.042;6.406;2024-02-26T12:01:38;5.60;99.90
54264;DHT22;40178;53.042;6.406;2024-02-26T12:04:05;5.70;99.90
54264;DHT22;40178;53.042;6.406;2024-02-26T12:09:08;5.70;99.90
54264;DHT22;40178;53.042;6.406;2024-02-26T12:11:37;5.70;99.90
54264;DHT22;40178;53.042;6.406;2024-02-26T12:14:05;5.60;99.90
54264;DHT22;40178;53.042;6.406;2024-02-26T12:16:38;5.60;99.90
54264;DHT22;40178;53.042;6.406;2024-02-26T12:19:05;5.60;99.90
54264;DHT22;40178;53.042;6.406;2024-02-26T12:21:34;5.60;99.90
54264;DHT22;40178;53.042;6.406;2024-02-26T12:24:14;5.60;99.90
54264;DHT22;40178;53.042;6.406;2024-02-26T12:26:41;5.60;99.90
54264;DHT22;40178;53.042;6.406;2024-02-26T12:29:07;5.70;99.90
54264;DHT22;40178;53.042;6.406;2024-02-26T12:31:33;5.70;99.90
54264;DHT22;40178;53.042;6.406;2024-02-26T12:34:00;5.60;99.90
54264;DHT22;40178;53.042;6.406;2024-02-26T12:36:26;5.60;99.90
54264;DHT22;40178;53.042;6.406;2024-02-26T12:38:52;5.60;99.90
54264;DHT22;40178;53.042;6.406;2024-02-26T12:41:18;5.60;99.90
54264;DHT22;40178;53.042;6.406;2024-02-26T12:43:44;5.50;99.90
54264;DHT22;40178;53.042;6.406;2024-02-26T12:46:10;5.60;99.90
54264;DHT22;40178;53.042;6.406;2024-02-26T12:48:36;5.60;99.90
54264;DHT22;40178;53.042;6.406;2024-02-26T12:51:02;5.50;99.90
54264;DHT22;40178;53.042;6.406;2024-02-26T12:53:28;5.50;99.90
54264;DHT22;40178;53.042;6.406;2024-02-26T12:55:56;5.50;99.90
54264;DHT22;40178;53.042;6.406;2024-02-26T12:58:22;5.50;99.90
54264;DHT22;40178;53.042;6.406;2024-02-26T13:00:54;5.50;99.90
54264;DHT22;40178;53.042;6.406;2024-02-26T13:03:21;5.40;99.90
54264;DHT22;40178;53.042;6.406;2024-02-26T13:05:47;5.40;99.90
54264;DHT22;40178;53.042;6.406;2024-02-26T13:08:20;5.30;99.90
54264;DHT22;40178;53.042;6.406;2024-02-26T13:10:46;5.20;99.90
54264;DHT22;40178;53.042;6.406;2024-02-26T13:13:15;5.20;99.90
54264;DHT22;40178;53.042;6.406;2024-02-26T13:15:41;5.10;99.90
54264;DHT22;40178;53.042;6.406;2024-02-26T13:18:10;5.10;99.90
54264;DHT22;40178;53.042;6.406;2024-02-26T13:20:36;5.10;99.90
54264;DHT22;40178;53.042;6.406;2024-02-26T13:23:03;5.10;99.90
54264;DHT22;40178;53.042;6.406;2024-02-26T13:25:29;5.10;99.90
54264;DHT22;40178;53.042;6.406;2024-02-26T13:28:14;5.10;99.90
54264;DHT22;40178;53.042;6.406;2024-02-26T13:30:41;5.10;99.90
54264;DHT22;40178;53.042;6.406;2024-02-26T13:33:09;5.10;99.90
54264;DHT22;40178;53.042;6.406;2024-02-26T13:35:35;5.00;99.90
54264;DHT22;40178;53.042;6.406;2024-02-26T13:38:02;5.10;99.90
54264;DHT22;40178;53.042;6.406;2024-02-26T13:40:28;5.10;99.90
54264;DHT22;40178;53.042;6.406;2024-02-26T13:42:54;5.00;99.90
54264;DHT22;40178;53.042;6.406;2024-02-26T13:45:20;5.00;99.90
54264;DHT22;40178;53.042;6.406;2024-02-26T13:47:45;5.00;99.90
54264;DHT22;40178;53.042;6.406;2024-02-26T13:50:11;4.90;99.90
54264;DHT22;40178;53.042;6.406;2024-02-26T13:52:37;4.90;99.90
54264;DHT22;40178;53.042;6.406;2024-02-26T13:55:03;4.90;99.90
54264;DHT22;40178;53.042;6.406;2024-02-26T13:57:29;4.90;99.90
54264;DHT22;40178;53.042;6.406;2024-02-26T13:59:55;4.90;99.90
54264;DHT22;40178;53.042;6.406;2024-02-26T14:02:21;4.90;99.90
54264;DHT22;40178;53.042;6.406;2024-02-26T14:04:47;4.90;99.90
54264;DHT22;40178;53.042;6.406;2024-02-26T14:07:13;4.90;99.90
54264;DHT22;40178;53.042;6.406;2024-02-26T14:09:39;5.00;99.90
54264;DHT22;40178;53.042;6.406;2024-02-26T14:12:04;5.00;99.90
54264;DHT22;40178;53.042;6.406;2024-02-26T14:14:30;5.00;99.90
54264;DHT22;40178;53.042;6.406;2024-02-26T14:16:59;5.00;99.90
54264;DHT22;40178;53.042;6.406;2024-02-26T14:19:25;4.90;99.90
54264;DHT22;40178;53.042;6.406;2024-02-26T14:21:51;4.90;99.90
54264;DHT22;40178;53.042;6.406;2024-02-26T14:24:16;5.00;99.90
54264;DHT22;40178;53.042;6.406;2024-02-26T14:26:42;4.90;99.90
54264;DHT22;40178;53.042;6.406;2024-02-26T14:29:08;5.00;99.90
54264;DHT22;40178;53.042;6.406;2024-02-26T14:31:33;5.00;99.90
54264;DHT22;40178;53.042;6.406;2024-02-26T14:33:59;5.00;99.90
54264;DHT22;40178;53.042;6.406;2024-02-26T14:36:25;5.00;99.90
54264;DHT22;40178;53.042;6.406;2024-02-26T14:38:51;5.00;99.90
54264;DHT22;40178;53.042;6.406;2024-02-26T14:41:17;5.10;99.90
54264;DHT22;40178;53.042;6.406;2024-02-26T14:43:42;4.90;99.90
54264;DHT22;40178;53.042;6.406;2024-02-26T14:46:08;4.90;99.90
54264;DHT22;40178;53.042;6.406;2024-02-26T14:48:34;4.90;99.90
54264;DHT22;40178;53.042;6.406;2024-02-26T14:51:00;4.90;99.90
54264;DHT22;40178;53.042;6.406;2024-02-26T14:53:26;4.90;99.90
54264;DHT22;40178;53.042;6.406;2024-02-26T14:55:52;4.90;99.90
54264;DHT22;40178;53.042;6.406;2024-02-26T14:58:17;4.90;99.90
54264;DHT22;40178;53.042;6.406;2024-02-26T15:00:43;4.90;99.90
54264;DHT22;40178;53.042;6.406;2024-02-26T15:03:09;4.90;99.90
54264;DHT22;40178;53.042;6.406;2024-02-26T15:05:35;4.90;99.90
54264;DHT22;40178;53.042;6.406;2024-02-26T15:08:00;4.90;99.90
54264;DHT22;40178;53.042;6.406;2024-02-26T15:10:27;4.90;99.90
54264;DHT22;40178;53.042;6.406;2024-02-26T15:12:54;4.90;99.90
54264;DHT22;40178;53.042;6.406;2024-02-26T15:15:20;4.80;99.90
54264;DHT22;40178;53.042;6.406;2024-02-26T15:17:47;4.80;99.90
54264;DHT22;40178;53.042;6.406;2024-02-26T15:20:14;4.80;99.90
54264;DHT22;40178;53.042;6.406;2024-02-26T15:22:40;4.80;99.90
54264;DHT22;40178;53.042;6.406;2024-02-26T15:25:07;4.80;99.90
54264;DHT22;40178;53.042;6.406;2024-02-26T15:27:33;4.70;99.90
54264;DHT22;40178;53.042;6.406;2024-02-26T15:29:59;4.70;99.90
54264;DHT22;40178;53.042;6.406;2024-02-26T15:32:25;4.70;99.90
54264;DHT22;40178;53.042;6.406;2024-02-26T15:34:53;4.70;99.90
54264;DHT22;40178;53.042;6.406;2024-02-26T15:37:18;4.70;99.90
54264;DHT22;40178;53.042;6.406;2024-02-26T15:39:44;4.70;99.90
54264;DHT22;40178;53.042;6.406;2024-02-26T15:42:11;4.70;99.90
54264;DHT22;40178;53.042;6.406;2024-02-26T15:44:37;4.70;99.90
54264;DHT22;40178;53.042;6.406;2024-02-26T15:47:04;4.60;99.90
54264;DHT22;40178;53.042;6.406;2024-02-26T15:49:30;4.60;99.90